Airport ID:KCCB
Update Time (UTC):09/12/2022 16:50
Wind Speed (Knots):4
Wind Direction (Magnetic):70
Temperature (°C):10
Dew Point (°C):1
Humidity (%):51
Altimeter (inHg):30.17
Density Altitude (Feet):
Visibility:10+
Clouds (Hundreds of feet):CLR
Present Weather:
METAR:METAR KCCB 091650Z AUTO 09003KT 10SM CLR 10/01 A3017 RMK AO2

The data displayed is for advisory purposes only and is not to be used for flight planning or operations.